createdAt,value
2019-05-12T00:00:07.904Z,73.49
2019-05-12T00:02:34.532Z,73.39
2019-05-12T00:05:00.968Z,72.73
2019-05-12T00:07:28.543Z,72.20
2019-05-12T00:09:55.072Z,71.78
2019-05-12T00:12:21.200Z,71.58
2019-05-12T00:14:48.522Z,71.70
2019-05-12T00:17:15.086Z,72.60
2019-05-12T00:19:41.431Z,73.24
2019-05-12T00:22:07.794Z,73.32
2019-05-12T00:24:33.956Z,72.37
2019-05-12T00:27:14.362Z,72.87
2019-05-12T00:29:40.812Z,73.50
2019-05-12T00:32:08.570Z,73.68
2019-05-12T00:34:35.002Z,73.82
2019-05-12T00:37:01.252Z,73.42
2019-05-12T00:39:27.951Z,72.92
2019-05-12T00:41:54.473Z,72.78
2019-05-12T00:44:20.557Z,73.29
2019-05-12T00:46:48.783Z,73.42
2019-05-12T00:49:15.326Z,73.50
2019-05-12T00:51:42.798Z,73.52
2019-05-12T00:54:09.487Z,74.46
2019-05-12T00:56:35.874Z,74.06
2019-05-12T00:59:02.149Z,73.94
2019-05-12T01:01:28.683Z,73.23
2019-05-12T01:03:55.260Z,72.99
2019-05-12T01:06:21.701Z,72.75
2019-05-12T01:08:48.425Z,73.23
2019-05-12T01:11:14.820Z,73.41
2019-05-12T01:13:41.163Z,73.36
2019-05-12T01:16:08.114Z,73.05
2019-05-12T01:18:34.342Z,73.87
2019-05-12T01:21:00.599Z,73.71
2019-05-12T01:23:28.128Z,73.73
2019-05-12T01:25:58.501Z,73.77
2019-05-12T01:28:25.022Z,73.46
2019-05-12T01:30:54.657Z,73.81
2019-05-12T01:33:21.107Z,74.13
2019-05-12T01:35:48.327Z,73.94
2019-05-12T01:38:14.872Z,73.96
2019-05-12T01:40:41.095Z,74.10
2019-05-12T01:43:08.553Z,73.43
2019-05-12T01:45:37.728Z,73.70
2019-05-12T01:48:03.501Z,73.54
2019-05-12T01:50:29.606Z,73.50
2019-05-12T01:52:58.828Z,72.87
2019-05-12T01:55:24.506Z,73.00
2019-05-12T01:57:50.649Z,73.51
2019-05-12T02:00:18.307Z,73.49
2019-05-12T02:02:45.027Z,73.86
2019-05-12T02:05:12.832Z,73.49
2019-05-12T02:07:41.073Z,74.14
2019-05-12T02:10:09.296Z,73.68
2019-05-12T02:12:38.152Z,73.67
2019-05-12T02:15:04.834Z,73.95
2019-05-12T02:17:31.346Z,73.82
2019-05-12T02:19:58.678Z,74.03
2019-05-12T02:22:25.030Z,74.19
2019-05-12T02:24:51.462Z,73.86
2019-05-12T02:27:17.920Z,73.41
2019-05-12T02:29:44.489Z,73.90
2019-05-12T02:32:11.986Z,74.29
2019-05-12T02:34:38.133Z,74.93
2019-05-12T02:37:05.490Z,75.07
2019-05-12T02:39:35.032Z,74.61
2019-05-12T02:42:04.927Z,74.91
2019-05-12T02:44:29.581Z,75.64
2019-05-12T02:46:55.771Z,74.72
2019-05-12T02:49:24.432Z,74.37
2019-05-12T02:51:50.234Z,75.07
2019-05-12T02:54:18.160Z,74.75
2019-05-12T02:56:45.914Z,75.37
2019-05-12T02:59:16.250Z,75.29
2019-05-12T03:01:46.260Z,75.27
2019-05-12T03:04:14.498Z,74.66
2019-05-12T03:06:44.604Z,74.94
2019-05-12T03:09:10.493Z,74.72
2019-05-12T03:11:39.066Z,75.22
2019-05-12T03:14:05.583Z,75.24
2019-05-12T03:16:34.806Z,75.27
2019-05-12T03:19:00.103Z,75.52
2019-05-12T03:21:26.556Z,75.29
2019-05-12T03:23:55.337Z,75.44
2019-05-12T03:26:24.744Z,75.46
2019-05-12T03:28:51.359Z,75.89
2019-05-12T03:31:23.637Z,75.63
2019-05-12T03:33:52.523Z,75.18
2019-05-12T03:36:17.894Z,75.12
2019-05-12T03:38:44.754Z,74.96
2019-05-12T03:41:14.770Z,75.01
2019-05-12T03:43:40.679Z,75.16
2019-05-12T03:46:07.164Z,74.96
2019-05-12T03:48:34.998Z,75.13
2019-05-12T03:51:01.532Z,74.69
2019-05-12T03:53:27.954Z,74.80
2019-05-12T03:55:55.261Z,74.77
2019-05-12T03:58:25.580Z,74.63
2019-05-12T04:00:55.377Z,74.71
2019-05-12T04:03:24.442Z,74.43
2019-05-12T04:05:50.877Z,74.49
2019-05-12T04:08:18.080Z,73.78
2019-05-12T04:10:45.469Z,74.06
2019-05-12T04:13:15.458Z,74.25
2019-05-12T04:15:45.119Z,74.12
2019-05-12T04:18:10.112Z,74.23
2019-05-12T04:20:36.671Z,74.77
2019-05-12T04:23:05.855Z,74.41
2019-05-12T04:25:47.826Z,74.49
2019-05-12T04:28:01.059Z,74.30
2019-05-12T04:30:28.494Z,74.15
2019-05-12T04:32:55.377Z,74.13
2019-05-12T04:35:24.900Z,74.18
2019-05-12T04:37:50.239Z,73.91
2019-05-12T04:40:16.793Z,73.79
2019-05-12T04:42:45.550Z,73.77
2019-05-12T04:45:15.631Z,73.37
2019-05-12T04:47:40.612Z,73.07
2019-05-12T04:50:07.010Z,72.98
2019-05-12T04:52:35.209Z,73.32
2019-05-12T04:55:04.772Z,73.48
2019-05-12T04:57:29.802Z,73.92
2019-05-12T04:59:56.362Z,73.71
2019-05-12T05:02:25.054Z,73.65
2019-05-12T05:04:50.727Z,73.60
2019-05-12T05:07:17.222Z,72.99
2019-05-12T05:09:46.934Z,72.70
2019-05-12T05:12:14.033Z,71.65
2019-05-12T05:14:40.798Z,71.47
2019-05-12T05:17:07.178Z,70.99
2019-05-12T05:19:33.811Z,70.18
2019-05-12T05:21:59.956Z,69.43
2019-05-12T05:24:26.273Z,69.07
2019-05-12T05:26:53.898Z,69.09
2019-05-12T05:29:20.445Z,69.07
2019-05-12T05:31:48.559Z,69.88
2019-05-12T05:34:15.732Z,70.21
2019-05-12T05:36:43.378Z,70.10
2019-05-12T05:39:10.032Z,69.92
2019-05-12T05:41:40.229Z,70.05
2019-05-12T05:44:04.405Z,69.40
2019-05-12T05:46:30.649Z,68.69
2019-05-12T05:48:56.978Z,69.00
2019-05-12T05:51:23.830Z,67.67
2019-05-12T05:53:51.962Z,68.48
2019-05-12T05:56:18.608Z,68.90
2019-05-12T05:58:47.122Z,69.20
2019-05-12T06:01:13.709Z,69.24
2019-05-12T06:03:40.294Z,69.18
2019-05-12T06:06:12.218Z,69.57
2019-05-12T06:08:40.020Z,69.04
2019-05-12T06:11:08.535Z,67.76
2019-05-12T06:13:40.153Z,67.42
2019-05-12T06:16:11.746Z,67.64
2019-05-12T06:18:36.885Z,67.25
2019-05-12T06:21:03.555Z,67.73
2019-05-12T06:23:34.911Z,67.03
2019-05-12T06:25:58.417Z,66.10
2019-05-12T06:28:31.202Z,66.83
2019-05-12T06:30:58.246Z,66.27
2019-05-12T06:33:31.271Z,66.05
2019-05-12T06:35:51.360Z,65.76
2019-05-12T06:38:17.669Z,65.50
2019-05-12T06:40:45.393Z,64.36
2019-05-12T06:43:14.062Z,64.73
2019-05-12T06:45:43.277Z,63.35
2019-05-12T06:48:08.854Z,63.47
2019-05-12T06:50:39.074Z,64.67
2019-05-12T06:53:05.172Z,65.16
2019-05-12T06:55:34.391Z,65.28
2019-05-12T06:58:00.964Z,65.90
2019-05-12T07:00:30.607Z,63.14
2019-05-12T07:02:56.575Z,63.50
2019-05-12T07:05:28.164Z,62.19
2019-05-12T07:07:53.426Z,61.66
2019-05-12T07:10:36.638Z,59.22
2019-05-12T07:13:00.925Z,60.02
2019-05-12T07:15:29.278Z,58.97
2019-05-12T07:17:55.956Z,59.16
2019-05-12T07:20:24.060Z,59.35
2019-05-12T07:22:54.792Z,57.59
2019-05-12T07:25:22.805Z,59.18
2019-05-12T07:27:55.252Z,56.80
2019-05-12T07:30:21.070Z,60.09
2019-05-12T07:32:51.109Z,55.86
2019-05-12T07:35:17.718Z,57.58
2019-05-12T07:37:45.696Z,56.68
2019-05-12T07:40:13.734Z,56.28
2019-05-12T07:42:43.833Z,54.93
2019-05-12T07:45:20.517Z,55.89
2019-05-12T07:47:40.920Z,53.62
2019-05-12T07:50:09.840Z,53.83
2019-05-12T07:52:37.141Z,54.31
2019-05-12T07:55:05.063Z,53.21
2019-05-12T07:57:34.545Z,55.53
2019-05-12T07:59:59.993Z,56.81
2019-05-12T08:02:31.757Z,55.54
2019-05-12T08:04:54.520Z,55.20
2019-05-12T08:07:28.274Z,54.29
2019-05-12T08:09:49.423Z,54.66
2019-05-12T08:12:20.825Z,53.15
2019-05-12T08:14:44.037Z,53.29
2019-05-12T08:17:14.224Z,54.27
2019-05-12T08:19:38.649Z,53.64
2019-05-12T08:22:05.089Z,51.57
2019-05-12T08:24:36.928Z,50.72
2019-05-12T08:27:03.824Z,50.43
2019-05-12T08:29:29.153Z,51.47
2019-05-12T08:31:55.577Z,53.40
2019-05-12T08:34:23.775Z,55.20
2019-05-12T08:36:53.372Z,53.08
2019-05-12T08:39:22.805Z,52.74
2019-05-12T08:41:46.504Z,50.17
2019-05-12T08:44:17.394Z,50.17
2019-05-12T08:46:51.769Z,47.01
2019-05-12T08:49:11.456Z,45.90
2019-05-12T08:51:40.825Z,45.88
2019-05-12T08:54:09.049Z,45.83
2019-05-12T08:56:35.319Z,46.37
2019-05-12T08:59:04.108Z,45.78
2019-05-12T09:01:31.075Z,47.65
2019-05-12T09:04:00.391Z,45.91
2019-05-12T09:06:26.173Z,41.68
2019-05-12T09:08:54.256Z,40.26
2019-05-12T09:11:20.838Z,41.84
2019-05-12T09:13:52.696Z,44.17
2019-05-12T09:16:16.718Z,46.00
2019-05-12T09:18:43.603Z,46.20
2019-05-12T09:21:10.333Z,44.62
2019-05-12T09:23:41.186Z,42.01
2019-05-12T09:26:07.032Z,46.16
2019-05-12T09:28:46.457Z,45.72
2019-05-12T09:31:04.367Z,43.13
2019-05-12T09:33:34.697Z,40.44
2019-05-12T09:36:01.328Z,41.64
2019-05-12T09:38:35.609Z,40.09
2019-05-12T09:41:03.232Z,42.36
2019-05-12T09:43:34.247Z,43.99
2019-05-12T09:46:00.710Z,46.56
2019-05-12T09:48:27.005Z,42.96
2019-05-12T09:51:00.241Z,44.45
2019-05-12T09:53:23.700Z,41.14
2019-05-12T09:55:49.473Z,40.17
2019-05-12T09:58:23.120Z,43.28
2019-05-12T10:00:44.417Z,41.29
2019-05-12T10:03:13.989Z,42.92
2019-05-12T10:05:41.268Z,40.76
2019-05-12T10:08:08.042Z,39.99
2019-05-12T10:10:40.089Z,39.33
2019-05-12T10:13:04.690Z,38.36
2019-05-12T10:15:33.191Z,38.11
2019-05-12T10:18:06.493Z,37.42
2019-05-12T10:20:29.318Z,38.03
2019-05-12T10:22:57.207Z,41.06
2019-05-12T10:25:28.379Z,40.73
2019-05-12T10:27:53.245Z,43.01
2019-05-12T10:30:19.895Z,40.68
2019-05-12T10:32:46.342Z,40.07
2019-05-12T10:35:21.186Z,37.75
2019-05-12T10:37:43.262Z,39.61
2019-05-12T10:40:09.736Z,40.14
2019-05-12T10:42:39.787Z,42.99
2019-05-12T10:45:05.090Z,38.99
2019-05-12T10:47:31.306Z,38.70
2019-05-12T10:49:57.655Z,37.99
2019-05-12T10:52:24.441Z,37.09
2019-05-12T10:54:50.923Z,39.55
2019-05-12T10:57:17.268Z,39.97
2019-05-12T10:59:48.186Z,40.04
2019-05-12T11:02:13.937Z,37.36
2019-05-12T11:04:41.309Z,37.66
2019-05-12T11:07:08.540Z,37.80
2019-05-12T11:09:34.775Z,36.56
2019-05-12T11:12:03.237Z,37.32
2019-05-12T11:14:30.515Z,38.17
2019-05-12T11:17:02.050Z,38.75
2019-05-12T11:19:27.064Z,39.96
2019-05-12T11:21:53.719Z,40.18
2019-05-12T11:24:20.170Z,41.04
2019-05-12T11:26:46.565Z,40.76
2019-05-12T11:29:14.172Z,42.22
2019-05-12T11:31:40.679Z,40.97
2019-05-12T11:34:06.848Z,41.40
2019-05-12T11:36:34.468Z,38.96
2019-05-12T11:39:00.780Z,38.41
2019-05-12T11:41:28.467Z,37.37
2019-05-12T11:43:55.060Z,33.30
2019-05-12T11:46:23.869Z,34.21
2019-05-12T11:48:50.513Z,35.53
2019-05-12T11:51:20.863Z,36.54
2019-05-12T11:53:45.429Z,34.63
2019-05-12T11:56:13.908Z,34.73
2019-05-12T11:58:41.333Z,35.13
2019-05-12T12:01:10.661Z,33.84
2019-05-12T12:03:37.025Z,32.77
2019-05-12T12:06:03.311Z,34.15
2019-05-12T12:08:33.665Z,34.39
2019-05-12T12:10:57.881Z,38.31
2019-05-12T12:13:28.373Z,36.16
2019-05-12T12:15:52.772Z,35.92
2019-05-12T12:18:19.002Z,34.64
2019-05-12T12:20:46.473Z,33.33
2019-05-12T12:23:14.112Z,34.99
2019-05-12T12:25:42.984Z,36.62
2019-05-12T12:28:10.421Z,34.84
2019-05-12T12:30:37.079Z,37.38
2019-05-12T12:33:04.370Z,38.26
2019-05-12T12:35:30.832Z,36.69
2019-05-12T12:37:57.163Z,38.40
2019-05-12T12:40:23.635Z,40.85
2019-05-12T12:42:50.018Z,42.10
2019-05-12T12:45:30.382Z,39.34
2019-05-12T12:47:58.362Z,42.45
2019-05-12T12:50:26.456Z,41.80
2019-05-12T12:52:53.475Z,42.72
2019-05-12T12:55:20.093Z,42.95
2019-05-12T12:57:50.760Z,42.96
2019-05-12T13:00:28.965Z,42.84
2019-05-12T13:02:49.103Z,42.44
2019-05-12T13:05:13.590Z,43.71
2019-05-12T13:07:40.083Z,44.13
2019-05-12T13:10:09.461Z,43.32
2019-05-12T13:12:35.855Z,42.92
2019-05-12T13:15:06.162Z,42.80
2019-05-12T13:17:36.540Z,43.23
2019-05-12T13:20:00.968Z,40.58
2019-05-12T13:22:29.625Z,39.95
2019-05-12T13:24:58.283Z,38.02
2019-05-12T13:27:25.113Z,38.42
2019-05-12T13:29:53.700Z,36.18
2019-05-12T13:32:25.829Z,35.73
2019-05-12T13:34:51.821Z,35.05
2019-05-12T13:37:19.387Z,35.97
2019-05-12T13:39:55.477Z,35.94
2019-05-12T13:42:14.206Z,37.17
2019-05-12T13:44:40.878Z,38.75
2019-05-12T13:47:07.424Z,40.25
2019-05-12T13:49:38.423Z,40.81
2019-05-12T13:52:04.101Z,43.27
2019-05-12T13:54:30.216Z,42.56
2019-05-12T13:56:56.523Z,41.40
2019-05-12T13:59:25.418Z,43.92
2019-05-12T14:01:50.989Z,44.93
2019-05-12T14:04:22.139Z,42.97
2019-05-12T14:06:45.520Z,43.27
2019-05-12T14:09:13.587Z,44.68
2019-05-12T14:11:39.919Z,43.34
2019-05-12T14:14:11.480Z,42.46
2019-05-12T14:16:34.570Z,41.65
2019-05-12T14:19:01.033Z,42.57
2019-05-12T14:21:33.029Z,41.82
2019-05-12T14:23:56.718Z,42.34
2019-05-12T14:26:24.257Z,43.64
2019-05-12T14:28:50.863Z,43.17
2019-05-12T14:31:26.387Z,42.95
2019-05-12T14:33:45.411Z,42.93
2019-05-12T14:36:13.638Z,41.77
2019-05-12T14:38:40.001Z,41.26
2019-05-12T14:41:10.368Z,41.14
2019-05-12T14:43:34.455Z,42.42
2019-05-12T14:46:08.257Z,42.71
2019-05-12T14:48:28.973Z,45.14
2019-05-12T14:50:55.222Z,43.75
2019-05-12T14:53:23.708Z,45.37
2019-05-12T14:55:53.350Z,44.11
2019-05-12T14:58:20.684Z,44.37
2019-05-12T15:00:50.891Z,44.26
2019-05-12T15:03:16.478Z,45.13
2019-05-12T15:05:47.197Z,44.56
2019-05-12T15:08:13.535Z,44.37
2019-05-12T15:10:39.719Z,43.79
2019-05-12T15:13:06.158Z,43.24
2019-05-12T15:15:34.471Z,44.21
2019-05-12T15:18:04.947Z,43.26
2019-05-12T15:20:30.450Z,42.24
2019-05-12T15:22:56.727Z,42.61
2019-05-12T15:25:23.104Z,41.83
2019-05-12T15:27:49.463Z,40.61
2019-05-12T15:30:23.332Z,41.97
2019-05-12T15:32:45.390Z,42.29
2019-05-12T15:35:13.708Z,43.21
2019-05-12T15:37:40.336Z,43.33
2019-05-12T15:40:07.480Z,45.72
2019-05-12T15:42:34.087Z,43.47
2019-05-12T15:45:00.407Z,44.24
2019-05-12T15:47:29.789Z,45.95
2019-05-12T15:49:54.917Z,47.64
2019-05-12T15:52:21.267Z,46.21
2019-05-12T15:54:51.302Z,44.93
2019-05-12T15:57:15.818Z,45.78
2019-05-12T15:59:43.468Z,45.56
2019-05-12T16:02:14.616Z,42.85
2019-05-12T16:04:42.927Z,43.28
2019-05-12T16:07:06.448Z,43.97
2019-05-12T16:09:34.442Z,43.85
2019-05-12T16:12:00.858Z,44.91
2019-05-12T16:14:30.354Z,43.86
2019-05-12T16:16:55.329Z,43.50
2019-05-12T16:19:23.423Z,45.71
2019-05-12T16:21:49.656Z,42.34
2019-05-12T16:24:16.047Z,43.88
2019-05-12T16:26:51.437Z,44.95
2019-05-12T16:29:10.919Z,45.18
2019-05-12T16:31:39.395Z,46.05
2019-05-12T16:34:06.233Z,47.11
2019-05-12T16:36:33.698Z,45.71
2019-05-12T16:39:00.732Z,44.98
2019-05-12T16:41:29.823Z,44.13
2019-05-12T16:43:55.319Z,42.94
2019-05-12T16:46:23.517Z,44.29
2019-05-12T16:48:54.511Z,43.02
2019-05-12T16:51:18.495Z,43.74
2019-05-12T16:53:44.935Z,43.06
2019-05-12T16:56:11.355Z,43.61
2019-05-12T16:58:37.877Z,43.66
2019-05-12T17:01:04.278Z,43.55
2019-05-12T17:03:30.678Z,43.80
2019-05-12T17:05:57.901Z,43.36
2019-05-12T17:08:25.288Z,43.82
2019-05-12T17:10:58.984Z,43.43
2019-05-12T17:13:20.015Z,43.74
2019-05-12T17:15:48.723Z,44.57
2019-05-12T17:18:15.147Z,44.22
2019-05-12T17:20:47.009Z,42.87
2019-05-12T17:23:10.018Z,43.65
2019-05-12T17:25:36.509Z,44.22
2019-05-12T17:28:03.696Z,42.06
2019-05-12T17:30:31.297Z,43.41
2019-05-12T17:33:01.638Z,43.98
2019-05-12T17:35:31.510Z,43.18
2019-05-12T17:37:54.379Z,42.76
2019-05-12T17:40:20.886Z,41.82
2019-05-12T17:42:47.171Z,42.67
2019-05-12T17:45:20.249Z,43.21
2019-05-12T17:47:44.108Z,43.56
2019-05-12T17:50:10.598Z,43.53
2019-05-12T17:52:36.884Z,44.32
2019-05-12T17:55:10.499Z,43.53
2019-05-12T17:57:34.364Z,43.18
2019-05-12T18:00:06.140Z,43.89
2019-05-12T18:02:29.175Z,44.00
2019-05-12T18:05:01.018Z,44.24
2019-05-12T18:07:23.938Z,43.55
2019-05-12T18:09:55.728Z,43.81
2019-05-12T18:12:18.545Z,43.81
2019-05-12T18:14:51.624Z,43.43
2019-05-12T18:17:14.143Z,44.32
2019-05-12T18:19:40.808Z,43.82
2019-05-12T18:22:09.307Z,44.03
2019-05-12T18:24:35.707Z,43.88
2019-05-12T18:27:07.203Z,44.38
2019-05-12T18:29:30.506Z,43.96
2019-05-12T18:31:57.039Z,44.27
2019-05-12T18:34:25.301Z,44.07
2019-05-12T18:36:55.846Z,44.10
2019-05-12T18:39:19.986Z,44.10
2019-05-12T18:41:46.466Z,44.77
2019-05-12T18:44:18.261Z,45.54
2019-05-12T18:46:45.017Z,45.54
2019-05-12T18:49:12.206Z,44.88
2019-05-12T18:51:37.741Z,44.35
2019-05-12T18:54:10.291Z,44.11
2019-05-12T18:56:33.790Z,43.96
2019-05-12T18:59:11.548Z,44.31
2019-05-12T19:01:33.474Z,44.36
2019-05-12T19:04:00.001Z,44.54
2019-05-12T19:06:26.237Z,44.40
2019-05-12T19:08:54.506Z,44.72
2019-05-12T19:11:23.697Z,44.83
2019-05-12T19:13:52.174Z,45.38
2019-05-12T19:16:17.905Z,44.95
2019-05-12T19:18:47.707Z,45.00
2019-05-12T19:21:16.714Z,44.97
2019-05-12T19:23:43.418Z,45.22
2019-05-12T19:26:09.711Z,45.86
2019-05-12T19:28:35.992Z,45.79
2019-05-12T19:31:06.074Z,46.34
2019-05-12T19:33:30.561Z,46.12
2019-05-12T19:36:04.035Z,46.06
2019-05-12T19:38:25.352Z,46.39
2019-05-12T19:40:58.759Z,46.59
2019-05-12T19:43:20.331Z,47.02
2019-05-12T19:45:46.828Z,46.85
2019-05-12T19:48:23.926Z,46.92
2019-05-12T19:50:44.512Z,46.88
2019-05-12T19:53:10.482Z,47.48
2019-05-12T19:55:36.950Z,47.66
2019-05-12T19:58:10.910Z,47.01
2019-05-12T20:00:33.531Z,47.58
2019-05-12T20:03:00.212Z,47.40
2019-05-12T20:05:26.621Z,47.72
2019-05-12T20:07:53.737Z,48.35
2019-05-12T20:10:20.392Z,48.61
2019-05-12T20:12:48.707Z,48.59
2019-05-12T20:15:15.472Z,48.92
2019-05-12T20:17:44.448Z,49.29
2019-05-12T20:20:10.663Z,49.64
2019-05-12T20:22:37.089Z,49.32
2019-05-12T20:25:06.595Z,49.70
2019-05-12T20:27:34.546Z,49.56
2019-05-12T20:30:07.159Z,50.04
2019-05-12T20:32:30.534Z,49.38
2019-05-12T20:34:56.907Z,49.80
2019-05-12T20:37:23.904Z,49.86
2019-05-12T20:39:59.699Z,49.61
2019-05-12T20:42:20.656Z,52.91
2019-05-12T20:44:51.277Z,53.38
2019-05-12T20:47:15.532Z,53.15
2019-05-12T20:49:42.900Z,52.15
2019-05-12T20:52:10.388Z,53.20
2019-05-12T20:54:36.764Z,54.06
2019-05-12T20:57:07.806Z,53.44
2019-05-12T20:59:31.254Z,53.99
2019-05-12T21:01:57.402Z,52.95
2019-05-12T21:04:31.274Z,54.11
2019-05-12T21:06:54.236Z,55.75
2019-05-12T21:09:20.612Z,56.37
2019-05-12T21:11:46.931Z,56.59
2019-05-12T21:14:14.663Z,55.06
2019-05-12T21:16:41.109Z,56.62
2019-05-12T21:19:10.966Z,56.29
2019-05-12T21:21:38.373Z,55.68
2019-05-12T21:24:05.062Z,56.98
2019-05-12T21:26:34.683Z,56.64
2019-05-12T21:29:00.332Z,58.34
2019-05-12T21:31:30.939Z,56.37
2019-05-12T21:33:55.083Z,57.64
2019-05-12T21:36:24.352Z,58.93
2019-05-12T21:38:49.588Z,58.92
2019-05-12T21:41:15.834Z,60.24
2019-05-12T21:43:43.793Z,60.75
2019-05-12T21:46:12.645Z,62.18
2019-05-12T21:48:38.933Z,60.92
2019-05-12T21:51:09.802Z,60.82
2019-05-12T21:53:34.513Z,62.07
2019-05-12T21:56:04.003Z,61.49
2019-05-12T21:58:29.147Z,61.76
2019-05-12T22:01:04.138Z,61.40
2019-05-12T22:03:27.188Z,61.14
2019-05-12T22:05:55.569Z,61.82
2019-05-12T22:08:25.376Z,58.97
2019-05-12T22:10:54.022Z,58.61
2019-05-12T22:13:21.607Z,58.48
2019-05-12T22:15:51.368Z,58.88
2019-05-12T22:18:16.702Z,58.66
2019-05-12T22:20:46.045Z,60.16
2019-05-12T22:23:12.622Z,60.30
2019-05-12T22:25:40.615Z,60.90
2019-05-12T22:28:10.147Z,60.23
2019-05-12T22:30:35.302Z,59.80
2019-05-12T22:33:05.901Z,59.73
2019-05-12T22:35:30.337Z,59.99
2019-05-12T22:37:56.800Z,60.29
2019-05-12T22:40:23.562Z,60.25
2019-05-12T22:42:50.570Z,60.41
2019-05-12T22:45:18.631Z,60.72
2019-05-12T22:47:49.264Z,61.08
2019-05-12T22:50:13.746Z,61.45
2019-05-12T22:52:47.247Z,61.21
2019-05-12T22:55:08.701Z,61.20
2019-05-12T22:57:40.088Z,61.59
2019-05-12T23:00:06.394Z,62.18
2019-05-12T23:02:34.715Z,62.20
2019-05-12T23:05:03.114Z,62.09
2019-05-12T23:07:30.018Z,62.25
2019-05-12T23:10:00.592Z,62.12
2019-05-12T23:12:27.400Z,62.61
2019-05-12T23:15:03.056Z,62.26
2019-05-12T23:17:25.431Z,63.58
2019-05-12T23:19:55.682Z,65.73
2019-05-12T23:22:23.490Z,65.96
2019-05-12T23:24:50.778Z,66.69
2019-05-12T23:27:18.915Z,66.31
2019-05-12T23:29:47.401Z,67.75
2019-05-12T23:32:15.036Z,66.65
2019-05-12T23:34:44.934Z,67.34
2019-05-12T23:37:11.152Z,67.54
2019-05-12T23:39:38.252Z,68.03
2019-05-12T23:42:05.931Z,67.76
2019-05-12T23:44:34.362Z,68.29
2019-05-12T23:47:00.890Z,68.93
2019-05-12T23:49:27.625Z,68.73
2019-05-12T23:51:56.180Z,69.48
2019-05-12T23:54:23.830Z,71.14
2019-05-12T23:56:50.854Z,70.89
2019-05-12T23:59:17.065Z,72.27
